createdAt,value
2018-04-22T00:02:16.360Z,101187
2018-04-22T00:04:44.558Z,101189
2018-04-22T00:07:12.714Z,101178
2018-04-22T00:09:40.817Z,101178
2018-04-22T00:12:09.223Z,101180
2018-04-22T00:14:37.558Z,101176
2018-04-22T00:17:05.646Z,101171
2018-04-22T00:19:34.014Z,101179
2018-04-22T00:22:02.284Z,101180
2018-04-22T00:24:30.470Z,101176
2018-04-22T00:26:58.641Z,101165
2018-04-22T00:29:26.827Z,101168
2018-04-22T00:31:54.987Z,101161
2018-04-22T00:34:23.436Z,101159
2018-04-22T00:36:51.816Z,101164
2018-04-22T00:39:20.094Z,101163
2018-04-22T00:41:48.365Z,101160
2018-04-22T00:44:16.576Z,101147
2018-04-22T00:46:44.854Z,101148
2018-04-22T00:49:12.952Z,101152
2018-04-22T00:51:41.053Z,101152
2018-04-22T00:54:20.963Z,101138
2018-04-22T00:56:49.078Z,101130
2018-04-22T00:59:17.250Z,101139
2018-04-22T01:01:45.579Z,101132
2018-04-22T01:04:13.799Z,101128
2018-04-22T01:06:42.157Z,101142
2018-04-22T01:09:10.482Z,101135
2018-04-22T01:11:38.794Z,101122
2018-04-22T01:14:06.936Z,101125
2018-04-22T01:16:35.261Z,101134
2018-04-22T01:19:03.428Z,101135
2018-04-22T01:21:31.589Z,101127
2018-04-22T01:23:59.822Z,101121
2018-04-22T01:26:28.144Z,101128
2018-04-22T01:28:56.289Z,101122
2018-04-22T01:31:24.591Z,101120
2018-04-22T01:33:52.732Z,101135
2018-04-22T01:36:20.864Z,101124
2018-04-22T01:38:48.972Z,101115
2018-04-22T01:41:17.208Z,101114
2018-04-22T01:43:45.298Z,101113
2018-04-22T01:46:13.422Z,101112
2018-04-22T01:48:41.745Z,101113
2018-04-22T01:51:09.943Z,101119
2018-04-22T01:53:38.172Z,101109
2018-04-22T01:56:06.474Z,101118
2018-04-22T01:58:34.677Z,101107
2018-04-22T02:01:02.956Z,101094
2018-04-22T02:03:31.308Z,101107
2018-04-22T02:05:59.427Z,101096
2018-04-22T02:08:27.590Z,101087
2018-04-22T02:10:55.936Z,101083
2018-04-22T02:13:24.325Z,101087
2018-04-22T02:15:52.704Z,101092
2018-04-22T02:18:21.075Z,101072
2018-04-22T02:20:49.182Z,101075
2018-04-22T02:23:17.423Z,101074
2018-04-22T02:25:45.518Z,101065
2018-04-22T02:28:13.613Z,101056
2018-04-22T02:30:41.732Z,101068
2018-04-22T02:33:09.995Z,101059
2018-04-22T02:35:38.492Z,101062
2018-04-22T02:38:06.790Z,101060
2018-04-22T02:40:34.944Z,101052
2018-04-22T02:43:03.317Z,101055
2018-04-22T02:45:31.578Z,101063
2018-04-22T02:47:59.857Z,101062
2018-04-22T02:50:28.146Z,101053
2018-04-22T02:52:56.240Z,101055
2018-04-22T02:55:24.338Z,101057
2018-04-22T02:57:52.413Z,101060
2018-04-22T03:00:20.489Z,101045
2018-04-22T03:02:48.586Z,101046
2018-04-22T03:05:16.673Z,101029
2018-04-22T03:07:44.925Z,101042
2018-04-22T03:10:13.021Z,101043
2018-04-22T03:12:41.298Z,101031
2018-04-22T03:15:09.544Z,101025
2018-04-22T03:17:37.654Z,101025
2018-04-22T03:20:05.740Z,101028
2018-04-22T03:22:33.937Z,101034
2018-04-22T03:25:02.365Z,101014
2018-04-22T03:27:30.678Z,101011
2018-04-22T03:29:58.822Z,101016
2018-04-22T03:32:26.900Z,101021
2018-04-22T03:34:54.996Z,101010
2018-04-22T03:37:23.116Z,101007
2018-04-22T03:39:51.485Z,100999
2018-04-22T03:42:19.613Z,101003
2018-04-22T03:44:47.939Z,101001
2018-04-22T03:47:16.002Z,100998
2018-04-22T03:49:44.419Z,101006
2018-04-22T03:52:12.493Z,100992
2018-04-22T03:54:40.840Z,100994
2018-04-22T03:57:09.089Z,100985
2018-04-22T03:59:37.157Z,100987
2018-04-22T04:02:05.316Z,100977
2018-04-22T04:04:33.437Z,100978
2018-04-22T04:07:01.535Z,100972
2018-04-22T04:09:29.930Z,100970
2018-04-22T04:11:58.028Z,100970
2018-04-22T04:14:26.257Z,100960
2018-04-22T04:16:54.508Z,100957
2018-04-22T04:19:34.540Z,100953
2018-04-22T04:22:14.282Z,100958
2018-04-22T04:24:54.296Z,100959
2018-04-22T04:30:23.929Z,100958
2018-04-22T04:32:52.037Z,100959
2018-04-22T04:35:20.541Z,100969
2018-04-22T04:37:48.716Z,100965
2018-04-22T04:40:16.862Z,100955
2018-04-22T04:42:45.114Z,100964
2018-04-22T04:45:13.241Z,100949
2018-04-22T04:47:41.591Z,100955
2018-04-22T04:50:09.699Z,100950
2018-04-22T04:52:37.833Z,100944
2018-04-22T04:55:06.799Z,100944
2018-04-22T04:57:35.221Z,100943
2018-04-22T05:00:03.486Z,100953
2018-04-22T05:02:31.574Z,100954
2018-04-22T05:04:59.699Z,100960
2018-04-22T05:07:27.894Z,100957
2018-04-22T05:09:56.001Z,100962
2018-04-22T05:12:24.109Z,100966
2018-04-22T05:14:52.175Z,100950
2018-04-22T05:17:20.552Z,100954
2018-04-22T05:19:48.684Z,100958
2018-04-22T05:22:17.092Z,100951
2018-04-22T05:24:45.516Z,100947
2018-04-22T05:27:13.597Z,100939
2018-04-22T05:29:42.016Z,100943
2018-04-22T05:32:10.318Z,100942
2018-04-22T05:34:38.630Z,100952
2018-04-22T05:37:07.100Z,100948
2018-04-22T05:39:35.339Z,100946
2018-04-22T05:42:03.445Z,100942
2018-04-22T05:44:32.234Z,100943
2018-04-22T05:47:00.627Z,100936
2018-04-22T05:49:28.821Z,100928
2018-04-22T05:51:57.094Z,100927
2018-04-22T05:54:25.447Z,100934
2018-04-22T05:56:53.818Z,100941
2018-04-22T05:59:22.976Z,100944
2018-04-22T06:01:51.161Z,100940
2018-04-22T06:04:19.579Z,100931
2018-04-22T06:06:47.744Z,100924
2018-04-22T06:09:15.840Z,100918
2018-04-22T06:11:44.258Z,100918
2018-04-22T06:14:12.385Z,100904
2018-04-22T06:16:40.540Z,100903
2018-04-22T06:19:08.760Z,100910
2018-04-22T06:21:37.017Z,100906
2018-04-22T06:24:05.349Z,100914
2018-04-22T06:26:33.498Z,100907
2018-04-22T06:29:01.753Z,100900
2018-04-22T06:31:30.387Z,100888
2018-04-22T06:33:58.806Z,100891
2018-04-22T06:36:27.182Z,100887
2018-04-22T06:38:55.533Z,100876
2018-04-22T06:41:23.640Z,100873
2018-04-22T06:43:51.743Z,100881
2018-04-22T06:46:20.343Z,100874
2018-04-22T06:48:48.484Z,100873
2018-04-22T06:51:16.741Z,100872
2018-04-22T06:53:45.130Z,100872
2018-04-22T06:56:13.289Z,100878
2018-04-22T06:58:41.487Z,100859
2018-04-22T07:01:09.813Z,100858
2018-04-22T07:03:37.975Z,100858
2018-04-22T07:06:06.482Z,100853
2018-04-22T07:08:35.230Z,100852
2018-04-22T07:11:03.377Z,100857
2018-04-22T07:13:31.514Z,100854
2018-04-22T07:15:59.767Z,100852
2018-04-22T07:18:28.149Z,100861
2018-04-22T07:20:56.224Z,100862
2018-04-22T07:23:24.642Z,100862
2018-04-22T07:25:53.047Z,100854
2018-04-22T07:28:21.392Z,100854
2018-04-22T07:30:49.791Z,100860
2018-04-22T07:33:18.027Z,100854
2018-04-22T07:35:46.322Z,100860
2018-04-22T07:38:14.797Z,100870
2018-04-22T07:40:43.054Z,100861
2018-04-22T07:43:11.387Z,100855
2018-04-22T07:45:39.732Z,100846
2018-04-22T07:48:08.059Z,100845
2018-04-22T07:50:36.162Z,100848
2018-04-22T07:53:04.372Z,100836
2018-04-22T07:55:33.003Z,100837
2018-04-22T07:58:01.157Z,100846
2018-04-22T08:00:29.759Z,100843
2018-04-22T08:02:58.012Z,100847
2018-04-22T08:05:26.432Z,100837
2018-04-22T08:07:54.642Z,100836
2018-04-22T08:10:23.164Z,100833
2018-04-22T08:12:52.287Z,100826
2018-04-22T08:15:20.599Z,100823
2018-04-22T08:17:48.938Z,100824
2018-04-22T08:20:17.415Z,100821
2018-04-22T08:22:45.776Z,100828
2018-04-22T08:25:13.926Z,100824
2018-04-22T08:27:42.165Z,100815
2018-04-22T08:30:10.327Z,100800
2018-04-22T08:32:38.595Z,100809
2018-04-22T08:35:07.365Z,100817
2018-04-22T08:37:35.566Z,100809
2018-04-22T08:40:03.642Z,100806
2018-04-22T08:42:31.753Z,100809
2018-04-22T08:44:59.932Z,100802
2018-04-22T08:47:28.137Z,100787
2018-04-22T08:49:56.253Z,100797
2018-04-22T08:52:24.668Z,100791
2018-04-22T08:54:52.855Z,100799
2018-04-22T08:57:21.011Z,100790
2018-04-22T08:59:49.332Z,100802
2018-04-22T09:02:17.986Z,100793
2018-04-22T09:04:46.269Z,100786
2018-04-22T09:07:14.684Z,100778
2018-04-22T09:09:43.031Z,100775
2018-04-22T09:12:11.130Z,100782
2018-04-22T09:14:39.624Z,100779
2018-04-22T09:17:07.927Z,100775
2018-04-22T09:19:36.468Z,100765
2018-04-22T09:22:04.919Z,100775
2018-04-22T09:24:33.067Z,100775
2018-04-22T09:27:01.293Z,100768
2018-04-22T09:29:29.828Z,100765
2018-04-22T09:31:58.034Z,100774
2018-04-22T09:34:26.442Z,100759
2018-04-22T09:36:54.796Z,100751
2018-04-22T09:39:23.077Z,100751
2018-04-22T09:41:51.296Z,100743
2018-04-22T09:44:19.674Z,100745
2018-04-22T09:46:47.867Z,100741
2018-04-22T09:49:15.957Z,100734
2018-04-22T09:51:44.228Z,100728
2018-04-22T09:54:12.545Z,100721
2018-04-22T09:56:40.682Z,100719
2018-04-22T09:59:08.912Z,100724
2018-04-22T10:01:37.157Z,100721
2018-04-22T10:04:11.103Z,100723
2018-04-22T10:06:39.689Z,100719
2018-04-22T10:09:08.017Z,100714
2018-04-22T10:11:36.254Z,100716
2018-04-22T10:14:04.425Z,100716
2018-04-22T10:16:32.937Z,100704
2018-04-22T10:19:01.330Z,100706
2018-04-22T10:21:29.741Z,100701
2018-04-22T10:23:57.971Z,100706
2018-04-22T10:26:26.093Z,100694
2018-04-22T10:28:54.371Z,100693
2018-04-22T10:31:22.573Z,100680
2018-04-22T10:33:50.680Z,100674
2018-04-22T10:36:18.909Z,100683
2018-04-22T10:38:47.152Z,100680
2018-04-22T10:41:16.158Z,100672
2018-04-22T10:43:44.731Z,100670
2018-04-22T10:46:13.106Z,100655
2018-04-22T10:48:41.203Z,100653
2018-04-22T10:51:09.980Z,100649
2018-04-22T10:53:38.562Z,100650
2018-04-22T10:56:06.667Z,100642
2018-04-22T10:58:35.301Z,100645
2018-04-22T11:01:03.381Z,100636
2018-04-22T11:03:31.873Z,100634
2018-04-22T11:06:00.423Z,100620
2018-04-22T11:08:28.662Z,100618
2018-04-22T11:10:56.767Z,100601
2018-04-22T11:13:25.325Z,100606
2018-04-22T11:15:53.727Z,100605
2018-04-22T11:18:21.875Z,100599
2018-04-22T11:20:50.137Z,100589
2018-04-22T11:23:18.530Z,100605
2018-04-22T11:25:46.852Z,100582
2018-04-22T11:28:15.250Z,100583
2018-04-22T11:30:43.380Z,100580
2018-04-22T11:33:11.513Z,100583
2018-04-22T11:35:40.159Z,100575
2018-04-22T11:38:08.416Z,100568
2018-04-22T11:40:36.536Z,100556
2018-04-22T11:43:04.692Z,100567
2018-04-22T11:45:32.906Z,100565
2018-04-22T11:48:01.037Z,100570
2018-04-22T11:50:29.985Z,100563
2018-04-22T11:52:58.115Z,100562
2018-04-22T11:55:26.223Z,100558
2018-04-22T11:57:54.393Z,100568
2018-04-22T12:00:22.673Z,100562
2018-04-22T12:02:51.006Z,100556
2018-04-22T12:05:19.094Z,100559
2018-04-22T12:07:47.228Z,100551
2018-04-22T12:10:15.405Z,100561
2018-04-22T12:12:43.561Z,100552
2018-04-22T12:15:12.214Z,100535
2018-04-22T12:17:40.578Z,100534
2018-04-22T12:20:08.761Z,100539
2018-04-22T12:22:37.233Z,100531
2018-04-22T12:25:05.426Z,100522
2018-04-22T12:27:33.637Z,100533
2018-04-22T12:30:02.020Z,100524
2018-04-22T12:42:17.902Z,100507
2018-04-22T12:44:46.011Z,100495
2018-04-22T12:50:56.351Z,100490
2018-04-22T12:53:24.958Z,100483
2018-04-22T12:55:53.528Z,100489
2018-04-22T12:58:21.897Z,100478
2018-04-22T13:41:20.486Z,100425
2018-04-22T13:43:48.696Z,100414
2018-04-22T13:46:16.994Z,100405
2018-04-22T13:48:45.275Z,100403
2018-04-22T13:51:13.481Z,100404
2018-04-22T13:53:41.761Z,100400
2018-04-22T13:56:10.038Z,100388
2018-04-22T13:58:38.395Z,100385
2018-04-22T14:01:06.677Z,100381
2018-04-22T14:03:35.025Z,100376
2018-04-22T14:06:03.660Z,100374
2018-04-22T14:08:31.890Z,100363
2018-04-22T14:11:00.081Z,100354
2018-04-22T14:13:28.410Z,100354
2018-04-22T14:15:56.877Z,100366
2018-04-22T14:18:25.670Z,100366
2018-04-22T14:20:54.199Z,100359
2018-04-22T14:23:23.085Z,100348
2018-04-22T14:25:51.587Z,100353
2018-04-22T14:28:20.175Z,100351
2018-04-22T14:30:48.814Z,100348
2018-04-22T14:33:18.576Z,100347
2018-04-22T14:35:47.139Z,100348
2018-04-22T14:38:15.809Z,100352
2018-04-22T14:40:44.318Z,100343
2018-04-22T14:43:12.697Z,100335
2018-04-22T14:45:53.243Z,100321
2018-04-22T14:48:21.578Z,100320
2018-04-22T14:50:49.863Z,100324
2018-04-22T14:53:18.548Z,100308
2018-04-22T14:55:47.392Z,100305
2018-04-22T14:58:16.180Z,100296
2018-04-22T15:00:44.944Z,100305
2018-04-22T15:03:13.544Z,100302
2018-04-22T15:05:42.403Z,100301
2018-04-22T15:08:10.824Z,100297
2018-04-22T15:10:39.508Z,100299
2018-04-22T15:13:07.855Z,100293
2018-04-22T15:15:36.080Z,100282
2018-04-22T15:18:04.260Z,100282
2018-04-22T15:20:32.572Z,100276
2018-04-22T15:23:01.009Z,100277
2018-04-22T15:25:29.183Z,100270
2018-04-22T15:27:57.668Z,100277
2018-04-22T15:30:26.114Z,100269
2018-04-22T15:32:54.548Z,100278
2018-04-22T15:35:22.922Z,100275
2018-04-22T15:37:51.194Z,100271
2018-04-22T15:40:19.758Z,100273
2018-04-22T15:42:48.122Z,100281
2018-04-22T15:45:16.466Z,100277
2018-04-22T15:47:45.077Z,100278
2018-04-22T15:50:13.479Z,100284
2018-04-22T15:52:41.825Z,100287
2018-04-22T15:55:10.853Z,100286
2018-04-22T15:57:39.292Z,100284
2018-04-22T16:00:07.911Z,100289
2018-04-22T16:02:36.076Z,100285
2018-04-22T16:05:05.055Z,100269
2018-04-22T16:07:33.560Z,100273
2018-04-22T16:10:02.013Z,100263
2018-04-22T16:12:30.844Z,100260
2018-04-22T16:14:59.158Z,100264
2018-04-22T16:17:27.909Z,100253
2018-04-22T16:19:56.178Z,100254
2018-04-22T16:22:24.608Z,100259
2018-04-22T16:24:52.917Z,100245
2018-04-22T16:27:21.204Z,100255
2018-04-22T16:29:49.713Z,100242
2018-04-22T16:32:18.138Z,100237
2018-04-22T16:34:46.824Z,100236
2018-04-22T16:37:15.227Z,100232
2018-04-22T16:39:43.664Z,100227
2018-04-22T16:42:12.556Z,100228
2018-04-22T16:44:41.250Z,100218
2018-04-22T16:47:10.005Z,100201
2018-04-22T16:49:39.047Z,100195
2018-04-22T16:52:07.590Z,100186
2018-04-22T16:54:36.057Z,100173
2018-04-22T16:57:04.694Z,100168
2018-04-22T16:59:33.486Z,100162
2018-04-22T17:02:02.201Z,100156
2018-04-22T17:04:30.653Z,100151
2018-04-22T17:06:59.176Z,100166
2018-04-22T17:09:28.216Z,100166
2018-04-22T17:11:56.891Z,100172
2018-04-22T17:14:25.750Z,100163
2018-04-22T17:16:54.282Z,100154
2018-04-22T17:19:24.208Z,100161
2018-04-22T17:21:53.799Z,100165
2018-04-22T17:24:22.503Z,100169
2018-04-22T17:26:51.148Z,100167
2018-04-22T17:29:19.755Z,100163
2018-04-22T17:31:48.284Z,100161
2018-04-22T17:34:16.826Z,100177
2018-04-22T17:36:45.297Z,100208
2018-04-22T17:39:13.890Z,100276
2018-04-22T17:41:42.427Z,100281
2018-04-22T17:44:11.604Z,100283
2018-04-22T17:46:41.263Z,100277
2018-04-22T17:49:09.557Z,100303
2018-04-22T17:51:38.194Z,100297
2018-04-22T17:54:06.709Z,100291
2018-04-22T17:56:35.064Z,100281
2018-04-22T17:59:03.245Z,100298
2018-04-22T18:01:31.847Z,100302
2018-04-22T18:04:00.046Z,100308
2018-04-22T18:06:28.544Z,100297
2018-04-22T18:08:57.014Z,100297
2018-04-22T18:11:25.524Z,100297
2018-04-22T18:13:53.637Z,100312
2018-04-22T18:16:21.850Z,100299
2018-04-22T18:18:50.102Z,100296
2018-04-22T18:21:18.256Z,100294
2018-04-22T18:23:46.841Z,100282
2018-04-22T18:26:15.136Z,100276
2018-04-22T18:28:43.233Z,100263
2018-04-22T18:31:11.649Z,100269
2018-04-22T18:33:41.043Z,100274
2018-04-22T18:36:09.115Z,100275
2018-04-22T18:38:37.425Z,100285
2018-04-22T18:41:05.584Z,100275
2018-04-22T18:43:33.780Z,100276
2018-04-22T18:46:01.872Z,100272
2018-04-22T18:48:29.956Z,100286
2018-04-22T18:50:58.127Z,100283
2018-04-22T18:53:26.266Z,100304
2018-04-22T18:55:54.529Z,100307
2018-04-22T18:58:22.822Z,100317
2018-04-22T19:00:50.948Z,100338
2018-04-22T19:03:19.080Z,100347
2018-04-22T19:05:47.746Z,100338
2018-04-22T19:08:15.863Z,100353
2018-04-22T19:10:44.221Z,100342
2018-04-22T19:13:12.549Z,100349
2018-04-22T19:15:41.076Z,100337
2018-04-22T19:18:09.600Z,100322
2018-04-22T19:20:38.009Z,100319
2018-04-22T19:23:06.181Z,100320
2018-04-22T19:25:34.521Z,100295
2018-04-22T19:28:03.041Z,100279
2018-04-22T19:30:31.228Z,100275
2018-04-22T19:32:59.646Z,100282
2018-04-22T19:35:28.038Z,100285
2018-04-22T19:37:56.287Z,100271
2018-04-22T19:40:24.440Z,100267
2018-04-22T19:42:52.614Z,100252
2018-04-22T19:45:20.988Z,100261
2018-04-22T19:47:49.314Z,100261
2018-04-22T19:50:17.461Z,100268
2018-04-22T19:52:45.997Z,100256
2018-04-22T19:55:14.135Z,100242
2018-04-22T19:57:42.438Z,100258
2018-04-22T20:00:10.729Z,100260
2018-04-22T20:02:39.006Z,100260
2018-04-22T20:05:07.247Z,100258
2018-04-22T20:07:35.437Z,100264
2018-04-22T20:10:03.573Z,100270
2018-04-22T20:12:31.845Z,100260
2018-04-22T20:14:59.982Z,100252
2018-04-22T20:17:28.327Z,100259
2018-04-22T20:20:05.901Z,100258
2018-04-22T20:22:37.123Z,100252
2018-04-22T20:25:05.289Z,100257
2018-04-22T20:27:35.680Z,100268
2018-04-22T20:30:04.238Z,100273
2018-04-22T20:32:32.849Z,100277
2018-04-22T20:35:01.112Z,100279
2018-04-22T20:37:29.278Z,100289
2018-04-22T20:39:58.080Z,100288
2018-04-22T20:42:26.564Z,100308
2018-04-22T20:44:54.673Z,100315
2018-04-22T20:47:23.171Z,100335
2018-04-22T20:49:51.313Z,100354
2018-04-22T20:52:19.478Z,100362
2018-04-22T20:54:47.837Z,100372
2018-04-22T20:57:15.973Z,100378
2018-04-22T20:59:44.273Z,100388
2018-04-22T21:02:12.606Z,100392
2018-04-22T21:04:40.753Z,100412
2018-04-22T21:07:09.000Z,100445
2018-04-22T21:09:37.143Z,100438
2018-04-22T21:12:05.411Z,100452
2018-04-22T21:14:33.574Z,100445
2018-04-22T21:17:02.414Z,100450
2018-04-22T21:19:31.226Z,100440
2018-04-22T21:21:59.315Z,100448
2018-04-22T21:24:27.653Z,100432
2018-04-22T21:26:56.017Z,100405
2018-04-22T21:29:24.237Z,100402
2018-04-22T21:31:52.571Z,100391
2018-04-22T21:34:20.860Z,100363
2018-04-22T21:36:49.319Z,100360
2018-04-22T21:39:17.696Z,100353
2018-04-22T21:41:45.816Z,100340
2018-04-22T21:44:14.133Z,100322
2018-04-22T21:46:42.528Z,100326
2018-04-22T21:49:10.651Z,100323
2018-04-22T21:51:39.001Z,100330
2018-04-22T21:54:07.239Z,100335
2018-04-22T21:56:35.646Z,100319
2018-04-22T21:59:03.747Z,100303
2018-04-22T22:01:32.081Z,100299
2018-04-22T22:04:00.251Z,100300
2018-04-22T22:06:28.327Z,100284
2018-04-22T22:08:56.749Z,100289
2018-04-22T22:11:25.081Z,100286
2018-04-22T22:13:53.373Z,100283
2018-04-22T22:16:21.456Z,100286
2018-04-22T22:18:50.125Z,100292
2018-04-22T22:21:18.198Z,100278
2018-04-22T22:23:46.671Z,100285
2018-04-22T22:26:15.002Z,100284
2018-04-22T22:28:43.279Z,100281
2018-04-22T22:31:11.420Z,100281
2018-04-22T22:33:39.782Z,100288
2018-04-22T22:36:08.143Z,100297
2018-04-22T22:38:36.335Z,100288
2018-04-22T22:41:04.645Z,100277
2018-04-22T22:43:32.766Z,100280
2018-04-22T22:46:01.087Z,100281
2018-04-22T22:48:29.522Z,100288
2018-04-22T22:50:57.647Z,100293
2018-04-22T22:53:25.966Z,100286
2018-04-22T22:55:54.317Z,100294
2018-04-22T22:58:22.450Z,100304
2018-04-22T23:00:50.707Z,100305
2018-04-22T23:03:19.192Z,100291
2018-04-22T23:05:47.483Z,100297
2018-04-22T23:08:15.586Z,100293
2018-04-22T23:10:43.917Z,100292
2018-04-22T23:13:12.024Z,100296
2018-04-22T23:15:40.110Z,100295
2018-04-22T23:18:08.300Z,100300
2018-04-22T23:20:36.784Z,100288
2018-04-22T23:23:04.990Z,100284
2018-04-22T23:25:33.065Z,100287
2018-04-22T23:28:01.355Z,100288
2018-04-22T23:30:29.469Z,100293
2018-04-22T23:32:57.591Z,100290
2018-04-22T23:35:25.854Z,100279
2018-04-22T23:37:53.966Z,100276
2018-04-22T23:40:22.256Z,100278
2018-04-22T23:42:50.490Z,100276
2018-04-22T23:45:18.772Z,100271
2018-04-22T23:47:47.203Z,100251
2018-04-22T23:50:15.548Z,100253
2018-04-22T23:52:43.868Z,100250
2018-04-22T23:55:12.021Z,100251
2018-04-22T23:57:40.430Z,100256
